Somis, CA

7:55 PM PST on February 10, 2016 (GMT -0800)
MesoWest | | Change Station
CLOSE
Current Station
Personal Weather Station
Location: Ventura, CA
Elevation: 660 ft
Nearby Weather Stations

Elev 660 ft 34.28 °N, 119.09 °W | Updated 31 minutes ago

Clear
Clear
68.0 °F
Feels Like 68.0 °F
N
0.0
Wind Variable Wind from North
Gusts 2.0 mph

Today
High -- | Low -- °F
--% Chance of Precip.
Yesterday
High -- | Low -- °F
Precip. -- in
Pressure 30.12 in
Visibility 10.0 miles
Clouds Clear
Dew Point 44.0 °F
Humidity 41%
Rainfall in
Snow Depth Not available.
6:46 AM 5:34 PM
Waxing Crescent, 9% visible
METAR KCMA 110255Z 06005KT 10SM CLR 17/05 A3009 RMK AO2 SLP198 T01670050 50002
Pressure 30.12 in
Visibility 10.0 miles
Clouds Clear
Dew Point 44.0 °F
Humidity 41%
Rainfall in
Snow Depth Not available.
6:46 AM 5:34 PM
Waxing Crescent, 9% visible
METAR KCMA 110255Z 06005KT 10SM CLR 17/05 A3009 RMK AO2 SLP198 T01670050 50002

10-Day Weather Forecast

Almanac

Astronomy

Feb. 10, 2016 Rise Set
Actual Time
Civil Twilight
Nautical Twilight
Astronomical Twilight
Moon
Length of Visible Light
Length of Day
Tomorrow will be .
, % of the Moon is Illuminated

Today's Extremes

State Highs State Lows

Community

WunderPhotos

Upload Photos

1,892,000 photos uploaded!

WunderBlog® & News

Nearby

Air Quality

  Air Quality AQ Index Pollutant
Not available.

Snow Depth

Station Depth Elevation

Earthquake Activity

City Distance Mag. Time & Date
Minimum magnitude displayed is 2.5.

Coastal Water Temperatures

Place Temperature

Stations

Nearby Weather Stations

Station Location Temp. Windchill Dew Point Humidity Wind Precip. Elev Updated Type
                   

Watches & Warnings

There are currently no watches in effect.